createdAt,value
2018-09-30T00:01:26.184Z,101653.11
2018-09-30T00:03:55.832Z,101653.05
2018-09-30T00:06:25.483Z,101655.98
2018-09-30T00:08:55.157Z,101655.84
2018-09-30T00:11:24.861Z,101656.16
2018-09-30T00:13:54.611Z,101654.65
2018-09-30T00:16:24.248Z,101644.95
2018-09-30T00:18:53.908Z,101643.52
2018-09-30T00:21:23.583Z,101645.12
2018-09-30T00:23:58.244Z,101643.27
2018-09-30T00:26:33.142Z,101642.25
2018-09-30T00:29:02.856Z,101628.31
2018-09-30T00:31:32.522Z,101634.22
2018-09-30T00:34:07.296Z,101626.64
2018-09-30T00:36:36.910Z,101621.58
2018-09-30T00:39:07.605Z,101627.10
2018-09-30T00:41:37.275Z,101621.66
2018-09-30T00:44:07.164Z,101622.75
2018-09-30T00:46:36.772Z,101619.91
2018-09-30T00:49:06.934Z,101618.88
2018-09-30T00:51:36.748Z,101613.14
2018-09-30T00:54:06.396Z,101611.36
2018-09-30T00:56:36.058Z,101605.22
2018-09-30T00:59:05.678Z,101599.15
2018-09-30T01:01:35.304Z,101591.70
2018-09-30T01:04:05.096Z,101588.16
2018-09-30T01:06:34.756Z,101588.12
2018-09-30T01:09:06.988Z,101591.12
2018-09-30T01:11:36.724Z,101587.30
2018-09-30T01:14:06.620Z,101584.75
2018-09-30T01:16:36.499Z,101585.23
2018-09-30T01:19:06.436Z,101567.78
2018-09-30T01:21:36.353Z,101568.06
2018-09-30T01:24:06.287Z,101563.80
2018-09-30T01:26:35.956Z,101558.27
2018-09-30T01:29:05.655Z,101554.72
2018-09-30T01:31:35.324Z,101561.17
2018-09-30T01:34:05.004Z,101562.46
2018-09-30T01:36:34.664Z,101559.39
2018-09-30T01:39:05.347Z,101554.07
2018-09-30T01:41:41.636Z,101554.41
2018-09-30T01:44:11.240Z,101550.86
2018-09-30T01:46:40.944Z,101552.42
2018-09-30T01:49:10.579Z,101552.02
2018-09-30T01:51:40.327Z,101542.46
2018-09-30T01:54:09.967Z,101538.50
2018-09-30T01:56:39.585Z,101532.88
2018-09-30T01:59:09.318Z,101534.98
2018-09-30T02:01:38.956Z,101531.10
2018-09-30T02:04:08.670Z,101536.22
2018-09-30T02:06:38.296Z,101537.44
2018-09-30T02:09:07.928Z,101529.94
2018-09-30T02:11:37.624Z,101528.09
2018-09-30T02:14:07.560Z,101519.02
2018-09-30T02:16:37.226Z,101508.58
2018-09-30T02:19:07.104Z,101512.06
2018-09-30T02:21:36.750Z,101503.33
2018-09-30T02:24:06.380Z,101505.44
2018-09-30T02:26:36.076Z,101496.33
2018-09-30T02:29:05.716Z,101495.38
2018-09-30T02:31:35.375Z,101504.27
2018-09-30T02:34:05.020Z,101500.24
2018-09-30T02:36:34.639Z,101487.15
2018-09-30T02:39:05.009Z,101485.20
2018-09-30T02:41:34.646Z,101486.75
2018-09-30T02:44:04.313Z,101478.58
2018-09-30T02:46:34.011Z,101474.83
2018-09-30T02:49:03.659Z,101476.20
2018-09-30T02:51:33.486Z,101473.54
2018-09-30T02:54:03.088Z,101466.59
2018-09-30T02:56:32.724Z,101461.27
2018-09-30T02:59:02.324Z,101458.94
2018-09-30T03:01:32.087Z,101458.31
2018-09-30T03:04:01.730Z,101452.62
2018-09-30T03:06:36.505Z,101452.22
2018-09-30T03:09:15.662Z,101445.81
2018-09-30T03:11:45.312Z,101443.97
2018-09-30T03:14:16.045Z,101448.12
2018-09-30T03:16:46.400Z,101450.09
2018-09-30T03:19:16.460Z,101440.84
2018-09-30T03:21:46.161Z,101438.45
2018-09-30T03:24:15.751Z,101433.94
2018-09-30T03:26:45.372Z,101438.16
2018-09-30T03:29:15.066Z,101431.20
2018-09-30T03:31:44.943Z,101428.21
2018-09-30T03:34:14.550Z,101421.33
2018-09-30T03:36:44.185Z,101411.86
2018-09-30T03:39:13.918Z,101407.50
2018-09-30T03:41:43.558Z,101403.14
2018-09-30T03:44:13.217Z,101393.56
2018-09-30T03:46:42.811Z,101398.26
2018-09-30T03:49:12.448Z,101400.37
2018-09-30T03:51:42.107Z,101400.70
2018-09-30T03:54:11.736Z,101394.16
2018-09-30T03:56:41.493Z,101392.46
2018-09-30T03:59:11.036Z,101382.44
2018-09-30T04:01:40.652Z,101386.73
2018-09-30T04:04:10.329Z,101375.02
2018-09-30T04:06:40.014Z,101369.29
2018-09-30T04:09:10.563Z,101370.06
2018-09-30T04:11:40.212Z,101362.23
2018-09-30T04:14:09.902Z,101363.38
2018-09-30T04:16:39.542Z,101366.71
2018-09-30T04:19:09.177Z,101360.03
2018-09-30T04:21:38.859Z,101356.08
2018-09-30T04:24:10.516Z,101353.30
2018-09-30T04:26:41.175Z,101350.17
2018-09-30T04:29:10.864Z,101348.47
2018-09-30T04:31:40.493Z,101356.16
2018-09-30T04:34:10.179Z,101356.08
2018-09-30T04:36:39.840Z,101354.79
2018-09-30T04:39:10.226Z,101354.79
2018-09-30T04:41:40.025Z,101343.55
2018-09-30T04:44:09.866Z,101352.13
2018-09-30T04:46:39.512Z,101352.95
2018-09-30T04:49:09.144Z,101352.13
2018-09-30T04:51:38.758Z,101352.28
2018-09-30T04:54:08.424Z,101352.89
2018-09-30T04:56:38.039Z,101354.59
2018-09-30T04:59:07.787Z,101355.67
2018-09-30T05:01:37.386Z,101360.85
2018-09-30T05:04:07.099Z,101360.38
2018-09-30T05:06:36.745Z,101361.66
2018-09-30T05:09:08.465Z,101360.11
2018-09-30T05:11:38.117Z,101360.66
2018-09-30T05:14:07.905Z,101355.56
2018-09-30T05:16:37.702Z,101357.84
2018-09-30T05:19:07.344Z,101356.70
2018-09-30T05:21:36.983Z,101353.92
2018-09-30T05:24:06.804Z,101348.58
2018-09-30T05:26:36.452Z,101341.98
2018-09-30T05:29:06.605Z,101341.38
2018-09-30T05:31:36.205Z,101341.36
2018-09-30T05:34:05.867Z,101332.81
2018-09-30T05:36:35.508Z,101330.78
2018-09-30T05:39:07.775Z,101334.46
2018-09-30T05:41:37.798Z,101318.65
2018-09-30T05:44:08.547Z,101320.35
2018-09-30T05:46:38.463Z,101324.95
2018-09-30T05:49:08.728Z,101324.47
2018-09-30T05:51:38.300Z,101326.23
2018-09-30T05:54:07.911Z,101330.28
2018-09-30T05:56:37.589Z,101321.04
2018-09-30T05:59:07.231Z,101326.11
2018-09-30T06:01:36.867Z,101318.63
2018-09-30T06:04:06.720Z,101321.61
2018-09-30T06:06:36.308Z,101316.61
2018-09-30T06:09:11.610Z,101316.67
2018-09-30T06:11:41.429Z,101309.67
2018-09-30T06:14:11.255Z,101315.00
2018-09-30T06:16:41.032Z,101310.19
2018-09-30T06:19:10.727Z,101306.02
2018-09-30T06:21:41.088Z,101314.02
2018-09-30T06:24:11.920Z,101316.25
2018-09-30T06:26:41.736Z,101309.20
2018-09-30T06:29:11.484Z,101308.15
2018-09-30T06:31:41.219Z,101302.53
2018-09-30T06:34:10.871Z,101303.05
2018-09-30T06:36:40.524Z,101298.80
2018-09-30T06:39:11.116Z,101299.99
2018-09-30T06:41:40.872Z,101297.54
2018-09-30T06:44:10.480Z,101302.48
2018-09-30T06:46:40.211Z,101297.35
2018-09-30T06:49:09.867Z,101303.84
2018-09-30T06:51:39.499Z,101306.43
2018-09-30T06:54:09.128Z,101297.87
2018-09-30T06:56:38.827Z,101292.16
2018-09-30T06:59:08.687Z,101289.66
2018-09-30T07:01:38.402Z,101286.09
2018-09-30T07:04:08.040Z,101289.16
2018-09-30T07:06:37.699Z,101287.23
2018-09-30T07:09:08.920Z,101283.59
2018-09-30T07:11:38.547Z,101283.59
2018-09-30T07:14:08.238Z,101272.03
2018-09-30T07:16:38.021Z,101269.12
2018-09-30T07:19:07.704Z,101273.08
2018-09-30T07:21:37.370Z,101262.45
2018-09-30T07:24:07.056Z,101270.98
2018-09-30T07:26:36.708Z,101268.71
2018-09-30T07:29:06.375Z,101271.94
2018-09-30T07:31:36.132Z,101266.08
2018-09-30T07:34:05.804Z,101268.14
2018-09-30T07:36:35.431Z,101271.47
2018-09-30T07:39:07.436Z,101267.05
2018-09-30T07:41:37.081Z,101264.77
2018-09-30T07:44:07.023Z,101261.78
2018-09-30T07:46:37.120Z,101264.64
2018-09-30T07:49:06.739Z,101264.06
2018-09-30T07:51:36.379Z,101260.98
2018-09-30T07:54:06.141Z,101256.97
2018-09-30T07:56:35.936Z,101259.10
2018-09-30T07:59:05.598Z,101261.27
2018-09-30T08:01:35.318Z,101256.44
2018-09-30T08:04:05.064Z,101257.30
2018-09-30T08:06:34.759Z,101251.78
2018-09-30T08:09:06.163Z,101247.69
2018-09-30T08:11:35.968Z,101243.19
2018-09-30T08:14:05.975Z,101242.78
2018-09-30T08:16:35.641Z,101236.44
2018-09-30T08:19:05.292Z,101235.91
2018-09-30T08:21:34.981Z,101228.48
2018-09-30T08:24:04.694Z,101224.19
2018-09-30T08:26:34.302Z,101219.86
2018-09-30T08:29:04.036Z,101208.17
2018-09-30T08:31:33.709Z,101209.73
2018-09-30T08:34:03.356Z,101210.31
2018-09-30T08:36:32.991Z,101212.91
2018-09-30T08:39:02.668Z,101208.70
2018-09-30T08:41:32.397Z,101210.53
2018-09-30T08:44:02.112Z,101207.79
2018-09-30T08:46:31.738Z,101207.89
2018-09-30T08:49:01.414Z,101210.06
2018-09-30T08:51:31.142Z,101208.67
2018-09-30T08:54:00.887Z,101209.63
2018-09-30T08:56:30.557Z,101203.61
2018-09-30T08:59:00.216Z,101196.34
2018-09-30T09:01:29.965Z,101202.89
2018-09-30T09:03:59.622Z,101210.98
2018-09-30T09:06:29.328Z,101202.30
2018-09-30T09:08:58.965Z,101206.05
2018-09-30T09:11:28.644Z,101202.20
2018-09-30T09:13:58.280Z,101200.17
2018-09-30T09:16:28.049Z,101203.98
2018-09-30T09:18:57.676Z,101206.30
2018-09-30T09:21:27.320Z,101196.06
2018-09-30T09:23:57.028Z,101191.47
2018-09-30T09:26:26.712Z,101191.34
2018-09-30T09:28:56.547Z,101189.77
2018-09-30T09:31:26.194Z,101176.17
2018-09-30T09:33:55.902Z,101177.08
2018-09-30T09:36:25.627Z,101165.66
2018-09-30T09:38:55.297Z,101168.28
2018-09-30T09:41:25.046Z,101170.47
2018-09-30T09:43:54.687Z,101164.69
2018-09-30T09:46:24.351Z,101155.27
2018-09-30T09:48:53.993Z,101157.27
2018-09-30T09:51:23.670Z,101145.52
2018-09-30T09:53:53.353Z,101154.20
2018-09-30T09:56:23.019Z,101149.36
2018-09-30T09:58:52.905Z,101137.33
2018-09-30T10:01:22.570Z,101138.77
2018-09-30T10:03:52.405Z,101136.09
2018-09-30T10:06:22.134Z,101123.77
2018-09-30T10:08:51.879Z,101123.93
2018-09-30T10:11:21.600Z,101120.94
2018-09-30T10:13:51.358Z,101114.05
2018-09-30T10:16:21.079Z,101109.33
2018-09-30T10:18:50.695Z,101097.51
2018-09-30T10:21:20.362Z,101092.88
2018-09-30T10:23:49.992Z,101095.34
2018-09-30T10:26:19.663Z,101085.48
2018-09-30T10:28:49.371Z,101081.45
2018-09-30T10:31:19.092Z,101082.45
2018-09-30T10:33:48.984Z,101067.89
2018-09-30T10:36:18.761Z,101069.09
2018-09-30T10:38:48.483Z,101063.27
2018-09-30T10:41:18.111Z,101052.88
2018-09-30T10:43:48.020Z,101055.47
2018-09-30T10:46:17.716Z,101051.58
2018-09-30T10:48:47.363Z,101048.72
2018-09-30T10:51:17.087Z,101047.63
2018-09-30T10:53:46.753Z,101049.62
2018-09-30T10:56:16.433Z,101047.75
2018-09-30T10:58:46.132Z,101042.27
2018-09-30T11:01:15.809Z,101038.64
2018-09-30T11:03:45.466Z,101038.83
2018-09-30T11:06:15.188Z,101035.73
2018-09-30T11:08:44.907Z,101025.59
2018-09-30T11:11:14.706Z,101026.38
2018-09-30T11:13:44.395Z,101023.98
2018-09-30T11:16:14.084Z,101022.56
2018-09-30T11:18:43.749Z,101011.31
2018-09-30T11:21:13.388Z,101016.13
2018-09-30T11:23:43.052Z,101003.28
2018-09-30T11:26:12.806Z,101005.39
2018-09-30T11:28:42.600Z,101001.70
2018-09-30T11:31:12.424Z,101001.52
2018-09-30T11:33:43.052Z,100986.27
2018-09-30T11:36:12.700Z,100990.41
2018-09-30T11:38:42.380Z,100977.83
2018-09-30T11:41:12.108Z,100981.02
2018-09-30T11:43:41.772Z,100966.64
2018-09-30T11:46:11.484Z,100964.50
2018-09-30T11:48:41.150Z,100968.13
2018-09-30T11:51:10.851Z,100962.05
2018-09-30T11:53:40.524Z,100955.17
2018-09-30T11:56:10.164Z,100948.70
2018-09-30T11:58:39.858Z,100946.06
2018-09-30T12:01:09.533Z,100945.17
2018-09-30T12:03:39.197Z,100938.14
2018-09-30T12:06:08.918Z,100932.88
2018-09-30T12:08:38.551Z,100937.28
2018-09-30T12:11:08.312Z,100934.63
2018-09-30T12:13:38.037Z,100941.64
2018-09-30T12:16:07.916Z,100938.58
2018-09-30T12:18:37.612Z,100931.03
2018-09-30T12:21:07.271Z,100923.12
2018-09-30T12:23:36.991Z,100920.53
2018-09-30T12:26:06.720Z,100903.38
2018-09-30T12:28:36.565Z,100910.84
2018-09-30T12:31:06.290Z,100912.19
2018-09-30T12:33:35.956Z,100894.11
2018-09-30T12:36:05.694Z,100901.16
2018-09-30T12:38:35.503Z,100895.45
2018-09-30T12:41:05.191Z,100894.51
2018-09-30T12:43:34.839Z,100886.10
2018-09-30T12:46:04.530Z,100891.33
2018-09-30T12:48:34.133Z,100878.52
2018-09-30T12:51:03.760Z,100874.98
2018-09-30T12:53:33.431Z,100874.50
2018-09-30T12:56:03.347Z,100863.49
2018-09-30T12:58:33.171Z,100858.19
2018-09-30T13:01:02.840Z,100857.75
2018-09-30T13:03:32.506Z,100855.98
2018-09-30T13:06:02.314Z,100853.30
2018-09-30T13:08:31.986Z,100845.78
2018-09-30T13:11:01.668Z,100837.42
2018-09-30T13:13:31.615Z,100834.31
2018-09-30T13:16:01.284Z,100840.88
2018-09-30T13:18:30.922Z,100841.76
2018-09-30T13:21:00.937Z,100832.48
2018-09-30T13:23:30.601Z,100830.23
2018-09-30T13:26:00.224Z,100822.73
2018-09-30T13:28:29.919Z,100818.76
2018-09-30T13:30:59.551Z,100829.28
2018-09-30T13:33:29.238Z,100825.30
2018-09-30T13:35:58.863Z,100817.34
2018-09-30T13:38:28.541Z,100816.91
2018-09-30T13:40:58.353Z,100809.83
2018-09-30T13:43:27.937Z,100804.52
2018-09-30T13:45:57.659Z,100801.38
2018-09-30T13:48:27.355Z,100800.45
2018-09-30T13:50:57.007Z,100796.91
2018-09-30T13:53:26.616Z,100796.44
2018-09-30T13:55:56.267Z,100795.55
2018-09-30T13:58:25.994Z,100792.92
2018-09-30T14:00:55.647Z,100790.31
2018-09-30T14:03:25.283Z,100788.09
2018-09-30T14:05:54.975Z,100788.52
2018-09-30T14:08:24.655Z,100782.81
2018-09-30T14:10:54.311Z,100787.24
2018-09-30T14:13:23.971Z,100779.34
2018-09-30T14:15:53.764Z,100775.87
2018-09-30T14:18:23.418Z,100770.59
2018-09-30T14:20:53.082Z,100763.12
2018-09-30T14:23:22.751Z,100766.20
2018-09-30T14:25:54.175Z,100752.15
2018-09-30T14:28:23.800Z,100756.58
2018-09-30T14:30:53.440Z,100758.38
2018-09-30T14:33:23.151Z,100748.30
2018-09-30T14:35:52.880Z,100753.19
2018-09-30T14:38:22.618Z,100744.89
2018-09-30T14:40:52.301Z,100739.61
2018-09-30T14:43:21.992Z,100730.83
2018-09-30T14:45:51.648Z,100724.27
2018-09-30T14:48:21.491Z,100724.30
2018-09-30T14:50:51.173Z,100724.80
2018-09-30T14:53:20.844Z,100717.78
2018-09-30T14:55:50.487Z,100715.25
2018-09-30T14:58:20.266Z,100710.48
2018-09-30T15:00:49.912Z,100712.30
2018-09-30T15:03:19.604Z,100711.05
2018-09-30T15:05:49.274Z,100697.86
2018-09-30T15:08:18.935Z,100698.33
2018-09-30T15:10:48.675Z,100705.00
2018-09-30T15:13:18.316Z,100704.23
2018-09-30T15:15:47.936Z,100700.34
2018-09-30T15:18:17.576Z,100699.50
2018-09-30T15:20:47.187Z,100694.30
2018-09-30T15:23:16.834Z,100693.50
2018-09-30T15:25:46.533Z,100694.45
2018-09-30T15:28:16.356Z,100695.84
2018-09-30T15:30:46.080Z,100693.73
2018-09-30T15:33:15.723Z,100686.75
2018-09-30T15:35:45.388Z,100681.55
2018-09-30T15:38:15.093Z,100683.86
2018-09-30T15:40:44.824Z,100677.77
2018-09-30T15:43:14.510Z,100669.53
2018-09-30T15:45:44.199Z,100673.56
2018-09-30T15:48:13.816Z,100677.56
2018-09-30T15:50:43.495Z,100676.83
2018-09-30T15:53:13.221Z,100676.90
2018-09-30T15:55:42.924Z,100672.99
2018-09-30T15:58:12.638Z,100668.69
2018-09-30T16:00:42.313Z,100664.41
2018-09-30T16:03:11.952Z,100671.52
2018-09-30T16:05:41.654Z,100672.51
2018-09-30T16:08:11.568Z,100672.15
2018-09-30T16:10:41.328Z,100667.45
2018-09-30T16:13:11.114Z,100664.93
2018-09-30T16:15:40.775Z,100667.63
2018-09-30T16:18:10.424Z,100664.22
2018-09-30T16:20:40.117Z,100665.20
2018-09-30T16:23:09.743Z,100666.12
2018-09-30T16:25:39.414Z,100666.66
2018-09-30T16:28:09.103Z,100664.92
2018-09-30T16:30:38.755Z,100653.63
2018-09-30T16:33:08.548Z,100659.86
2018-09-30T16:35:38.455Z,100653.77
2018-09-30T16:38:08.341Z,100658.24
2018-09-30T16:40:38.040Z,100660.53
2018-09-30T16:43:07.799Z,100665.88
2018-09-30T16:45:37.481Z,100664.64
2018-09-30T16:48:07.146Z,100665.58
2018-09-30T16:50:36.874Z,100671.30
2018-09-30T16:53:06.505Z,100669.59
2018-09-30T16:55:36.180Z,100666.12
2018-09-30T16:58:05.884Z,100673.59
2018-09-30T17:00:35.568Z,100668.78
2018-09-30T17:03:05.253Z,100671.44
2018-09-30T17:05:34.937Z,100670.55
2018-09-30T17:08:04.765Z,100668.38
2018-09-30T17:10:34.433Z,100671.02
2018-09-30T17:13:04.181Z,100665.33
2018-09-30T17:15:33.936Z,100671.45
2018-09-30T17:18:03.593Z,100668.38
2018-09-30T17:20:33.277Z,100667.91
2018-09-30T17:23:02.941Z,100672.24
2018-09-30T17:25:32.596Z,100677.06
2018-09-30T17:28:02.283Z,100684.03
2018-09-30T17:30:32.178Z,100683.59
2018-09-30T17:33:01.936Z,100676.12
2018-09-30T17:35:31.615Z,100673.52
2018-09-30T17:38:01.532Z,100675.69
2018-09-30T17:40:31.179Z,100672.61
2018-09-30T17:43:00.892Z,100666.48
2018-09-30T17:45:30.581Z,100667.77
2018-09-30T17:48:00.220Z,100664.67
2018-09-30T17:50:30.012Z,100664.66
2018-09-30T17:52:59.721Z,100658.08
2018-09-30T17:55:29.518Z,100656.33
2018-09-30T17:57:59.296Z,100663.28
2018-09-30T18:00:28.947Z,100652.78
2018-09-30T18:02:58.613Z,100651.91
2018-09-30T18:05:28.276Z,100653.16
2018-09-30T18:07:57.977Z,100663.16
2018-09-30T18:10:27.624Z,100654.86
2018-09-30T18:12:57.296Z,100652.65
2018-09-30T18:15:27.118Z,100646.96
2018-09-30T18:17:56.742Z,100643.02
2018-09-30T18:20:26.437Z,100645.61
2018-09-30T18:22:56.154Z,100645.19
2018-09-30T18:25:25.863Z,100649.95
2018-09-30T18:27:55.530Z,100646.87
2018-09-30T18:30:25.205Z,100637.66
2018-09-30T18:32:54.865Z,100643.32
2018-09-30T18:35:24.880Z,100643.73
2018-09-30T18:37:54.691Z,100644.58
2018-09-30T18:40:24.383Z,100641.92
2018-09-30T18:42:54.372Z,100639.27
2018-09-30T18:45:24.066Z,100634.84
2018-09-30T18:47:53.784Z,100640.07
2018-09-30T18:50:23.519Z,100635.24
2018-09-30T18:52:53.521Z,100630.43
2018-09-30T18:55:23.214Z,100630.38
2018-09-30T18:57:52.919Z,100622.53
2018-09-30T19:00:22.694Z,100631.23
2018-09-30T19:02:52.612Z,100628.16
2018-09-30T19:05:22.355Z,100630.75
2018-09-30T19:07:52.352Z,100629.41
2018-09-30T19:10:22.000Z,100621.55
2018-09-30T19:12:51.676Z,100625.88
2018-09-30T19:15:21.368Z,100613.64
2018-09-30T19:17:51.067Z,100613.61
2018-09-30T19:20:21.404Z,100608.36
2018-09-30T19:22:51.702Z,100606.58
2018-09-30T19:25:21.330Z,100601.28
2018-09-30T19:27:51.072Z,100605.15
2018-09-30T19:30:20.782Z,100603.86
2018-09-30T19:32:51.291Z,100592.16
2018-09-30T19:35:21.095Z,100598.30
2018-09-30T19:37:50.772Z,100595.27
2018-09-30T19:40:20.460Z,100588.31
2018-09-30T19:42:50.150Z,100583.47
2018-09-30T19:45:19.908Z,100591.23
2018-09-30T19:47:49.660Z,100587.64
2018-09-30T19:50:19.347Z,100588.84
2018-09-30T19:52:49.627Z,100578.73
2018-09-30T19:55:19.339Z,100580.80
2018-09-30T19:57:49.105Z,100582.44
2018-09-30T20:00:18.815Z,100578.84
2018-09-30T20:02:48.472Z,100576.95
2018-09-30T20:05:18.224Z,100574.72
2018-09-30T20:07:48.112Z,100574.66
2018-09-30T20:10:17.841Z,100571.08
2018-09-30T20:12:49.101Z,100568.44
2018-09-30T20:15:21.838Z,100569.22
2018-09-30T20:17:51.518Z,100572.19
2018-09-30T20:20:21.300Z,100572.14
2018-09-30T20:22:50.991Z,100571.22
2018-09-30T20:25:20.895Z,100571.58
2018-09-30T20:27:50.582Z,100569.80
2018-09-30T20:30:20.400Z,100567.62
2018-09-30T20:32:50.073Z,100560.66
2018-09-30T20:35:19.729Z,100570.63
2018-09-30T20:37:49.427Z,100559.76
2018-09-30T20:40:19.163Z,100550.59
2018-09-30T20:42:48.896Z,100550.61
2018-09-30T20:45:18.636Z,100551.97
2018-09-30T20:47:48.311Z,100547.20
2018-09-30T20:50:18.001Z,100549.84
2018-09-30T20:52:47.916Z,100544.64
2018-09-30T20:55:17.602Z,100539.42
2018-09-30T20:57:47.336Z,100540.28
2018-09-30T21:00:16.959Z,100536.78
2018-09-30T21:02:46.845Z,100539.78
2018-09-30T21:05:33.214Z,100535.83
2018-09-30T21:08:02.912Z,100535.76
2018-09-30T21:10:32.663Z,100534.02
2018-09-30T21:13:02.304Z,100532.66
2018-09-30T21:15:32.234Z,100532.19
2018-09-30T21:18:01.961Z,100529.05
2018-09-30T21:20:31.640Z,100523.36
2018-09-30T21:23:01.367Z,100514.98
2018-09-30T21:25:31.022Z,100517.52
2018-09-30T21:28:00.694Z,100519.63
2018-09-30T21:30:30.487Z,100513.03
2018-09-30T21:33:00.117Z,100509.47
2018-09-30T21:35:29.764Z,100507.25
2018-09-30T21:37:59.454Z,100512.32
2018-09-30T21:40:29.171Z,100512.24
2018-09-30T21:42:58.844Z,100513.80
2018-09-30T21:45:28.660Z,100505.86
2018-09-30T21:47:58.267Z,100508.31
2018-09-30T21:50:27.932Z,100506.50
2018-09-30T21:52:57.644Z,100501.64
2018-09-30T21:55:27.306Z,100497.22
2018-09-30T21:57:57.020Z,100498.47
2018-09-30T22:00:31.976Z,100491.42
2018-09-30T22:03:01.645Z,100490.97
2018-09-30T22:05:31.405Z,100490.12
2018-09-30T22:08:01.301Z,100491.78
2018-09-30T22:10:31.146Z,100488.70
2018-09-30T22:13:00.849Z,100483.95
2018-09-30T22:15:30.605Z,100492.72
2018-09-30T22:18:00.230Z,100482.44
2018-09-30T22:20:29.925Z,100478.59
2018-09-30T22:23:00.045Z,100483.48
2018-09-30T22:25:29.752Z,100477.44
2018-09-30T22:27:59.669Z,100477.04
2018-09-30T22:30:29.381Z,100470.98
2018-09-30T22:32:59.139Z,100467.54
2018-09-30T22:35:28.784Z,100464.48
2018-09-30T22:37:58.459Z,100461.85
2018-09-30T22:40:28.538Z,100460.47
2018-09-30T22:42:58.205Z,100459.95
2018-09-30T22:45:28.188Z,100466.83
2018-09-30T22:47:57.831Z,100466.23
2018-09-30T22:50:27.571Z,100460.81
2018-09-30T22:52:57.536Z,100460.18
2018-09-30T22:55:27.280Z,100460.41
2018-09-30T22:57:57.072Z,100458.47
2018-09-30T23:00:26.797Z,100458.73
2018-09-30T23:02:56.538Z,100456.84
2018-09-30T23:05:26.213Z,100448.03
2018-09-30T23:07:56.047Z,100444.92
2018-09-30T23:10:25.707Z,100445.76
2018-09-30T23:12:55.386Z,100447.94
2018-09-30T23:15:25.036Z,100446.31
2018-09-30T23:17:54.836Z,100447.75
2018-09-30T23:20:24.489Z,100441.48
2018-09-30T23:22:54.177Z,100446.48
2018-09-30T23:25:23.796Z,100448.39
2018-09-30T23:27:53.453Z,100448.60
2018-09-30T23:30:23.123Z,100452.28
2018-09-30T23:32:52.760Z,100452.12
2018-09-30T23:35:22.567Z,100446.30
2018-09-30T23:37:52.340Z,100449.99
2018-09-30T23:40:22.047Z,100449.72
2018-09-30T23:42:51.674Z,100451.12
2018-09-30T23:45:21.382Z,100446.05
2018-09-30T23:47:51.160Z,100448.31
2018-09-30T23:50:21.041Z,100448.84
2018-09-30T23:52:51.062Z,100445.78
2018-09-30T23:55:20.868Z,100441.83
2018-09-30T23:57:50.549Z,100440.45
